createdAt,value
2019-03-12T00:00:17.955Z,72.50
2019-03-12T00:02:08.834Z,72.50
2019-03-12T00:03:59.307Z,72.40
2019-03-12T00:05:49.839Z,72.40
2019-03-12T00:07:40.295Z,72.30
2019-03-12T00:09:30.783Z,72.40
2019-03-12T00:11:21.152Z,72.40
2019-03-12T00:13:12.241Z,72.50
2019-03-12T00:14:44.839Z,72.50
2019-03-12T00:16:17.338Z,72.50
2019-03-12T00:17:49.824Z,72.50
2019-03-12T00:19:22.243Z,72.50
2019-03-12T00:20:54.731Z,72.50
2019-03-12T00:22:27.214Z,72.50
2019-03-12T00:23:59.639Z,72.50
2019-03-12T00:25:32.145Z,72.60
2019-03-12T00:27:04.636Z,72.50
2019-03-12T00:28:36.979Z,72.50
2019-03-12T00:30:09.391Z,72.50
2019-03-12T00:31:41.884Z,73.30
2019-03-12T00:33:14.291Z,72.50
2019-03-12T00:34:46.707Z,72.30
2019-03-12T00:36:19.209Z,72.40
2019-03-12T00:37:51.635Z,72.30
2019-03-12T00:39:24.108Z,73.10
2019-03-12T00:40:56.600Z,72.20
2019-03-12T00:42:29.042Z,72.30
2019-03-12T00:44:01.527Z,72.20
2019-03-12T00:45:34.014Z,72.20
2019-03-12T00:47:06.435Z,72.20
2019-03-12T00:48:38.843Z,72.20
2019-03-12T00:50:11.181Z,72.10
2019-03-12T00:51:43.595Z,72.00
2019-03-12T00:53:16.031Z,72.00
2019-03-12T00:54:48.371Z,72.00
2019-03-12T00:56:20.783Z,72.00
2019-03-12T00:57:53.272Z,71.90
2019-03-12T00:59:25.700Z,71.80
2019-03-12T01:00:58.107Z,71.80
2019-03-12T01:02:30.543Z,71.70
2019-03-12T01:04:03.051Z,71.70
2019-03-12T01:05:35.454Z,71.70
2019-03-12T01:07:07.936Z,71.70
2019-03-12T01:08:40.435Z,71.80
2019-03-12T01:10:12.791Z,71.70
2019-03-12T01:11:45.268Z,71.90
2019-03-12T01:13:17.710Z,71.90
2019-03-12T01:14:50.061Z,71.90
2019-03-12T01:16:22.543Z,72.00
2019-03-12T01:17:55.059Z,71.90
2019-03-12T01:19:27.482Z,71.90
2019-03-12T01:20:59.811Z,71.90
2019-03-12T01:22:32.231Z,72.00
2019-03-12T01:24:04.772Z,72.10
2019-03-12T01:25:37.255Z,72.20
2019-03-12T01:27:09.689Z,72.20
2019-03-12T01:28:42.119Z,72.30
2019-03-12T01:30:14.716Z,72.20
2019-03-12T01:31:47.124Z,72.20
2019-03-12T01:33:19.527Z,72.30
2019-03-12T01:34:51.959Z,72.30
2019-03-12T01:36:24.438Z,72.30
2019-03-12T01:37:56.792Z,72.30
2019-03-12T01:39:29.288Z,72.30
2019-03-12T01:41:01.722Z,72.30
2019-03-12T01:42:34.132Z,72.30
2019-03-12T01:44:06.538Z,72.30
2019-03-12T01:45:38.972Z,72.20
2019-03-12T01:47:11.319Z,72.20
2019-03-12T01:48:43.904Z,72.20
2019-03-12T01:50:16.391Z,72.10
2019-03-12T01:51:48.746Z,72.20
2019-03-12T01:53:21.207Z,72.80
2019-03-12T01:54:53.683Z,72.30
2019-03-12T01:56:26.048Z,72.30
2019-03-12T01:57:58.540Z,72.50
2019-03-12T01:59:31.090Z,72.30
2019-03-12T02:01:03.502Z,72.40
2019-03-12T02:02:35.920Z,72.50
2019-03-12T02:04:08.311Z,72.50
2019-03-12T02:05:40.647Z,72.30
2019-03-12T02:07:13.095Z,72.30
2019-03-12T02:08:45.556Z,72.30
2019-03-12T02:10:17.972Z,72.30
2019-03-12T02:11:50.571Z,72.20
2019-03-12T02:13:22.967Z,72.10
2019-03-12T02:14:55.375Z,72.20
2019-03-12T02:16:27.847Z,72.20
2019-03-12T02:18:00.336Z,72.10
2019-03-12T02:19:32.739Z,72.10
2019-03-12T02:21:05.219Z,72.00
2019-03-12T02:22:37.791Z,72.00
2019-03-12T02:24:10.167Z,71.90
2019-03-12T02:25:42.588Z,71.80
2019-03-12T02:27:14.994Z,71.70
2019-03-12T02:28:47.423Z,71.70
2019-03-12T02:30:19.908Z,71.70
2019-03-12T02:31:52.519Z,71.60
2019-03-12T02:33:24.938Z,71.60
2019-03-12T02:34:57.424Z,71.50
2019-03-12T02:36:29.913Z,72.30
2019-03-12T02:38:02.416Z,71.40
2019-03-12T02:39:35.105Z,71.40
2019-03-12T02:41:07.538Z,71.30
2019-03-12T02:42:39.951Z,71.30
2019-03-12T02:44:12.454Z,71.30
2019-03-12T02:45:44.955Z,71.30
2019-03-12T02:47:17.348Z,71.20
2019-03-12T02:48:49.859Z,71.20
2019-03-12T02:50:22.360Z,71.20
2019-03-12T02:51:54.844Z,71.10
2019-03-12T02:53:27.251Z,71.10
2019-03-12T02:54:59.972Z,71.00
2019-03-12T02:56:32.315Z,71.00
2019-03-12T02:58:04.803Z,71.00
2019-03-12T02:59:37.292Z,71.00
2019-03-12T03:01:09.706Z,71.00
2019-03-12T03:02:42.183Z,71.00
2019-03-12T03:04:14.532Z,70.90
2019-03-12T03:05:46.971Z,70.90
2019-03-12T03:07:19.447Z,70.90
2019-03-12T03:08:51.869Z,71.00
2019-03-12T03:10:24.328Z,70.90
2019-03-12T03:11:56.801Z,70.90
2019-03-12T03:13:29.275Z,70.80
2019-03-12T03:15:01.673Z,70.80
2019-03-12T03:16:34.100Z,70.80
2019-03-12T03:18:06.511Z,70.70
2019-03-12T03:19:38.850Z,70.70
2019-03-12T03:21:11.277Z,70.70
2019-03-12T03:22:43.680Z,70.60
2019-03-12T03:24:16.087Z,70.60
2019-03-12T03:25:48.515Z,70.50
2019-03-12T03:27:21.860Z,70.50
2019-03-12T03:28:54.277Z,70.50
2019-03-12T03:30:26.775Z,70.50
2019-03-12T03:31:59.284Z,70.50
2019-03-12T03:33:31.702Z,70.40
2019-03-12T03:35:04.191Z,70.50
2019-03-12T03:36:36.802Z,70.40
2019-03-12T03:38:09.184Z,70.40
2019-03-12T03:39:41.583Z,69.70
2019-03-12T03:41:14.060Z,70.40
2019-03-12T03:42:46.492Z,70.40
2019-03-12T03:44:19.365Z,70.30
2019-03-12T03:45:51.947Z,70.60
2019-03-12T03:47:24.374Z,70.20
2019-03-12T03:48:56.858Z,70.20
2019-03-12T03:50:29.272Z,70.20
2019-03-12T03:52:01.679Z,70.20
2019-03-12T03:53:34.186Z,70.20
2019-03-12T03:55:06.660Z,70.20
2019-03-12T03:56:39.081Z,70.30
2019-03-12T03:58:11.524Z,70.20
2019-03-12T03:59:44.026Z,70.20
2019-03-12T04:01:16.405Z,70.20
2019-03-12T04:02:48.977Z,70.10
2019-03-12T04:04:21.401Z,70.10
2019-03-12T04:05:53.808Z,70.10
2019-03-12T04:07:26.226Z,70.80
2019-03-12T04:08:58.825Z,70.10
2019-03-12T04:10:31.231Z,70.10
2019-03-12T04:12:05.062Z,70.80
2019-03-12T04:13:37.732Z,70.10
2019-03-12T04:15:10.136Z,70.10
2019-03-12T04:16:42.531Z,70.00
2019-03-12T04:18:15.017Z,70.10
2019-03-12T04:19:47.508Z,70.00
2019-03-12T04:21:19.976Z,70.00
2019-03-12T04:22:52.317Z,70.00
2019-03-12T04:24:24.759Z,70.10
2019-03-12T04:25:57.251Z,70.00
2019-03-12T04:27:29.608Z,70.10
2019-03-12T04:29:02.019Z,70.10
2019-03-12T04:30:34.518Z,70.00
2019-03-12T04:32:06.940Z,69.90
2019-03-12T04:33:39.339Z,69.90
2019-03-12T04:35:13.629Z,69.50
2019-03-12T04:36:46.138Z,70.00
2019-03-12T04:38:18.471Z,70.00
2019-03-12T04:39:51.008Z,69.90
2019-03-12T04:41:23.559Z,69.90
2019-03-12T04:42:55.956Z,69.90
2019-03-12T04:44:28.350Z,69.90
2019-03-12T04:46:00.762Z,70.00
2019-03-12T04:47:33.105Z,69.80
2019-03-12T04:49:06.179Z,70.00
2019-03-12T04:50:38.703Z,70.00
2019-03-12T04:52:11.080Z,69.80
2019-03-12T04:53:43.565Z,69.80
2019-03-12T04:55:15.966Z,69.80
2019-03-12T04:56:48.399Z,69.80
2019-03-12T04:58:20.807Z,69.80
2019-03-12T04:59:53.279Z,69.80
2019-03-12T05:01:25.616Z,69.70
2019-03-12T05:02:58.130Z,69.80
2019-03-12T05:04:30.680Z,69.80
2019-03-12T05:06:03.069Z,69.70
2019-03-12T05:07:35.505Z,69.70
2019-03-12T05:09:07.849Z,69.50
2019-03-12T05:10:40.256Z,69.70
2019-03-12T05:12:12.748Z,69.70
2019-03-12T05:13:45.215Z,69.70
2019-03-12T05:15:17.616Z,69.70
2019-03-12T05:16:50.124Z,69.70
2019-03-12T05:18:22.626Z,69.60
2019-03-12T05:19:54.970Z,69.50
2019-03-12T05:21:27.384Z,69.60
2019-03-12T05:22:59.875Z,69.50
2019-03-12T05:24:32.217Z,69.50
2019-03-12T05:26:04.702Z,69.60
2019-03-12T05:27:37.270Z,69.40
2019-03-12T05:29:09.615Z,69.40
2019-03-12T05:30:42.118Z,69.40
2019-03-12T05:32:14.600Z,69.50
2019-03-12T05:33:47.032Z,69.40
2019-03-12T05:35:19.509Z,69.40
2019-03-12T05:36:51.933Z,69.30
2019-03-12T05:38:24.364Z,69.40
2019-03-12T05:39:56.773Z,69.30
2019-03-12T05:41:29.336Z,69.30
2019-03-12T05:43:01.690Z,69.30
2019-03-12T05:44:34.111Z,69.20
2019-03-12T05:46:06.593Z,69.30
2019-03-12T05:47:39.003Z,69.30
2019-03-12T05:49:11.418Z,69.30
2019-03-12T05:50:43.896Z,69.20
2019-03-12T05:52:16.306Z,69.20
2019-03-12T05:53:48.951Z,69.20
2019-03-12T05:55:21.748Z,69.10
2019-03-12T05:56:54.088Z,69.10
2019-03-12T05:58:26.434Z,69.10
2019-03-12T05:59:58.939Z,69.10
2019-03-12T06:01:31.361Z,69.10
2019-03-12T06:03:03.832Z,69.10
2019-03-12T06:04:36.277Z,69.00
2019-03-12T06:06:08.697Z,68.90
2019-03-12T06:07:41.183Z,68.90
2019-03-12T06:09:13.599Z,68.90
2019-03-12T06:10:46.043Z,68.80
2019-03-12T06:12:18.522Z,68.80
2019-03-12T06:13:50.937Z,68.90
2019-03-12T06:15:23.462Z,68.80
2019-03-12T06:16:55.939Z,68.90
2019-03-12T06:18:28.423Z,68.80
2019-03-12T06:20:00.844Z,68.80
2019-03-12T06:21:33.479Z,69.70
2019-03-12T06:23:05.875Z,68.90
2019-03-12T06:24:38.375Z,68.90
2019-03-12T06:26:10.983Z,68.80
2019-03-12T06:27:43.471Z,68.90
2019-03-12T06:29:15.878Z,68.90
2019-03-12T06:30:48.471Z,68.90
2019-03-12T06:32:21.222Z,68.80
2019-03-12T06:33:53.655Z,68.80
2019-03-12T06:35:26.044Z,68.80
2019-03-12T06:36:58.536Z,68.70
2019-03-12T06:38:30.856Z,68.70
2019-03-12T06:40:03.254Z,68.70
2019-03-12T06:41:36.067Z,68.60
2019-03-12T06:43:09.512Z,68.70
2019-03-12T06:44:41.899Z,68.60
2019-03-12T06:46:14.365Z,68.60
2019-03-12T06:47:46.705Z,69.30
2019-03-12T06:49:19.516Z,68.50
2019-03-12T06:50:51.914Z,68.50
2019-03-12T06:52:24.279Z,68.50
2019-03-12T06:53:56.766Z,68.40
2019-03-12T06:55:29.153Z,68.50
2019-03-12T06:57:01.476Z,68.30
2019-03-12T06:58:33.880Z,68.40
2019-03-12T07:00:06.368Z,68.30
2019-03-12T07:01:38.764Z,68.20
2019-03-12T07:03:11.158Z,68.20
2019-03-12T07:04:43.578Z,68.20
2019-03-12T07:06:16.000Z,68.10
2019-03-12T07:07:48.400Z,68.20
2019-03-12T07:09:20.722Z,68.00
2019-03-12T07:10:53.140Z,68.00
2019-03-12T07:12:25.816Z,67.90
2019-03-12T07:13:58.207Z,67.90
2019-03-12T07:15:30.554Z,67.80
2019-03-12T07:17:03.019Z,67.70
2019-03-12T07:18:35.417Z,67.60
2019-03-12T07:20:07.767Z,67.70
2019-03-12T07:21:40.174Z,67.60
2019-03-12T07:23:12.498Z,67.50
2019-03-12T07:24:44.822Z,67.40
2019-03-12T07:26:17.159Z,67.40
2019-03-12T07:27:49.551Z,67.30
2019-03-12T07:29:21.875Z,67.20
2019-03-12T07:30:54.287Z,67.40
2019-03-12T07:32:26.619Z,67.30
2019-03-12T07:33:59.025Z,67.30
2019-03-12T07:35:31.499Z,67.30
2019-03-12T07:37:04.006Z,67.30
2019-03-12T07:38:36.335Z,67.30
2019-03-12T07:40:08.726Z,67.10
2019-03-12T07:41:41.147Z,67.10
2019-03-12T07:43:13.551Z,67.00
2019-03-12T07:44:45.946Z,67.00
2019-03-12T07:46:18.359Z,67.70
2019-03-12T07:47:50.717Z,66.80
2019-03-12T07:49:23.179Z,66.80
2019-03-12T07:50:55.583Z,66.80
2019-03-12T07:52:27.930Z,66.70
2019-03-12T07:54:00.403Z,66.80
2019-03-12T07:55:32.809Z,66.80
2019-03-12T07:57:05.225Z,66.80
2019-03-12T07:58:37.627Z,66.80
2019-03-12T08:00:10.249Z,67.70
2019-03-12T08:01:42.700Z,66.90
2019-03-12T08:03:15.243Z,66.80
2019-03-12T08:04:47.642Z,66.80
2019-03-12T08:06:20.053Z,66.80
2019-03-12T08:07:52.473Z,66.70
2019-03-12T08:09:24.807Z,66.80
2019-03-12T08:10:57.204Z,66.70
2019-03-12T08:12:29.554Z,66.50
2019-03-12T08:14:01.956Z,66.40
2019-03-12T08:15:34.287Z,66.30
2019-03-12T08:17:06.603Z,66.20
2019-03-12T08:18:39.331Z,67.00
2019-03-12T08:20:11.659Z,66.10
2019-03-12T08:21:44.133Z,65.90
2019-03-12T08:23:16.557Z,65.60
2019-03-12T08:24:48.954Z,65.50
2019-03-12T08:26:21.367Z,65.40
2019-03-12T08:27:53.851Z,65.30
2019-03-12T08:29:26.175Z,65.20
2019-03-12T08:30:58.582Z,65.20
2019-03-12T08:32:31.034Z,65.20
2019-03-12T08:34:03.419Z,65.10
2019-03-12T08:35:35.741Z,64.90
2019-03-12T08:37:08.152Z,64.70
2019-03-12T08:38:40.568Z,64.30
2019-03-12T08:40:12.971Z,64.30
2019-03-12T08:41:45.363Z,64.10
2019-03-12T08:43:17.710Z,64.00
2019-03-12T08:44:50.040Z,63.80
2019-03-12T08:46:23.195Z,63.70
2019-03-12T08:47:55.710Z,63.50
2019-03-12T08:49:28.449Z,63.40
2019-03-12T08:51:01.033Z,63.30
2019-03-12T08:52:33.391Z,63.10
2019-03-12T08:54:05.830Z,62.80
2019-03-12T08:55:38.254Z,62.50
2019-03-12T08:57:10.643Z,62.30
2019-03-12T08:58:43.050Z,62.20
2019-03-12T09:00:15.534Z,62.00
2019-03-12T09:01:48.411Z,61.80
2019-03-12T09:03:21.048Z,61.50
2019-03-12T09:04:53.553Z,61.40
2019-03-12T09:06:25.950Z,61.50
2019-03-12T09:07:58.628Z,61.20
2019-03-12T09:09:31.179Z,62.00
2019-03-12T09:11:03.578Z,61.10
2019-03-12T09:12:36.195Z,60.80
2019-03-12T09:14:08.786Z,60.80
2019-03-12T09:15:41.177Z,60.70
2019-03-12T09:17:13.673Z,60.50
2019-03-12T09:18:46.321Z,60.30
2019-03-12T09:20:18.819Z,60.30
2019-03-12T09:21:51.454Z,60.20
2019-03-12T09:23:26.027Z,60.20
2019-03-12T09:24:58.632Z,60.20
2019-03-12T09:26:31.057Z,60.10
2019-03-12T09:28:03.659Z,60.00
2019-03-12T09:29:36.036Z,60.00
2019-03-12T09:31:08.551Z,59.90
2019-03-12T09:32:41.119Z,59.60
2019-03-12T09:34:13.442Z,59.90
2019-03-12T09:35:45.884Z,59.80
2019-03-12T09:37:18.361Z,59.80
2019-03-12T09:38:50.711Z,59.70
2019-03-12T09:40:23.075Z,59.70
2019-03-12T09:41:55.544Z,59.50
2019-03-12T09:43:27.947Z,59.40
2019-03-12T09:45:00.421Z,59.40
2019-03-12T09:46:33.207Z,59.30
2019-03-12T09:48:05.730Z,59.20
2019-03-12T09:49:38.214Z,59.10
2019-03-12T09:51:10.707Z,59.20
2019-03-12T09:52:43.034Z,59.10
2019-03-12T09:54:15.532Z,59.00
2019-03-12T09:55:47.957Z,59.00
2019-03-12T09:57:20.460Z,58.90
2019-03-12T09:58:52.859Z,58.70
2019-03-12T10:00:25.259Z,58.50
2019-03-12T10:01:59.444Z,58.30
2019-03-12T10:03:49.760Z,58.10
2019-03-12T10:05:34.171Z,58.00
2019-03-12T10:07:06.581Z,58.00
2019-03-12T10:08:38.928Z,57.70
2019-03-12T10:10:11.404Z,57.40
2019-03-12T10:12:02.611Z,57.40
2019-03-12T10:13:38.348Z,57.10
2019-03-12T10:15:10.828Z,57.10
2019-03-12T10:16:43.222Z,56.90
2019-03-12T10:18:15.587Z,56.90
2019-03-12T10:19:47.983Z,56.80
2019-03-12T10:21:20.860Z,56.80
2019-03-12T10:22:53.274Z,56.70
2019-03-12T10:24:28.725Z,56.70
2019-03-12T10:25:59.694Z,57.40
2019-03-12T10:27:32.466Z,56.80
2019-03-12T10:29:04.939Z,56.80
2019-03-12T10:30:37.724Z,56.70
2019-03-12T10:32:10.207Z,56.70
2019-03-12T10:33:42.622Z,56.70
2019-03-12T10:35:15.020Z,56.60
2019-03-12T10:36:48.464Z,56.70
2019-03-12T10:38:20.886Z,56.60
2019-03-12T10:39:53.317Z,56.40
2019-03-12T10:41:26.567Z,56.40
2019-03-12T10:42:59.157Z,56.20
2019-03-12T10:44:31.573Z,56.10
2019-03-12T10:46:04.179Z,56.00
2019-03-12T10:47:36.599Z,55.60
2019-03-12T10:49:09.067Z,55.50
2019-03-12T10:50:41.711Z,55.20
2019-03-12T10:52:14.230Z,54.90
2019-03-12T10:53:46.784Z,54.80
2019-03-12T10:55:19.163Z,54.70
2019-03-12T10:56:51.516Z,54.40
2019-03-12T10:58:23.906Z,54.40
2019-03-12T10:59:56.232Z,54.20
2019-03-12T11:01:28.646Z,54.10
2019-03-12T11:03:00.980Z,53.90
2019-03-12T11:04:33.448Z,53.80
2019-03-12T11:06:06.227Z,53.60
2019-03-12T11:07:38.742Z,53.60
2019-03-12T11:09:11.123Z,53.40
2019-03-12T11:10:43.550Z,53.30
2019-03-12T11:12:16.016Z,53.20
2019-03-12T11:13:48.343Z,53.20
2019-03-12T11:15:20.750Z,53.10
2019-03-12T11:16:54.538Z,52.90
2019-03-12T11:18:26.968Z,52.60
2019-03-12T11:19:59.442Z,51.90
2019-03-12T11:21:32.438Z,52.30
2019-03-12T11:23:04.884Z,52.10
2019-03-12T11:24:37.351Z,51.90
2019-03-12T11:26:09.747Z,51.70
2019-03-12T11:27:42.103Z,51.50
2019-03-12T11:29:14.576Z,51.50
2019-03-12T11:30:47.057Z,51.30
2019-03-12T11:32:21.380Z,51.10
2019-03-12T11:33:53.856Z,51.00
2019-03-12T11:35:26.259Z,50.70
2019-03-12T11:36:58.619Z,50.40
2019-03-12T11:38:31.011Z,50.10
2019-03-12T11:40:03.459Z,49.80
2019-03-12T11:41:35.822Z,49.60
2019-03-12T11:43:09.430Z,49.30
2019-03-12T11:44:42.023Z,48.80
2019-03-12T11:46:14.547Z,48.30
2019-03-12T11:47:47.036Z,47.90
2019-03-12T11:49:19.569Z,47.40
2019-03-12T11:50:51.970Z,46.60
2019-03-12T11:52:24.323Z,46.00
2019-03-12T11:53:57.138Z,45.60
2019-03-12T11:55:29.745Z,45.10
2019-03-12T11:57:02.651Z,44.80
2019-03-12T11:58:35.407Z,44.50
2019-03-12T12:00:07.858Z,44.10
2019-03-12T12:01:40.385Z,43.40
2019-03-12T12:03:13.150Z,43.20
2019-03-12T12:04:45.762Z,43.00
2019-03-12T12:06:18.205Z,42.50
2019-03-12T12:07:51.745Z,42.80
2019-03-12T12:09:24.179Z,42.70
2019-03-12T12:10:56.791Z,42.50
2019-03-12T12:12:29.223Z,42.60
2019-03-12T12:14:01.548Z,42.70
2019-03-12T12:15:33.987Z,42.60
2019-03-12T12:17:06.382Z,42.40
2019-03-12T12:18:38.790Z,42.20
2019-03-12T12:20:11.483Z,42.00
2019-03-12T12:21:43.898Z,41.80
2019-03-12T12:23:16.220Z,41.60
2019-03-12T12:24:48.803Z,41.40
2019-03-12T12:26:21.232Z,41.30
2019-03-12T12:27:53.639Z,41.10
2019-03-12T12:29:26.111Z,41.10
2019-03-12T12:30:58.513Z,41.00
2019-03-12T12:32:30.859Z,40.80
2019-03-12T12:34:03.258Z,40.60
2019-03-12T12:35:36.326Z,40.40
2019-03-12T12:37:08.787Z,40.10
2019-03-12T12:38:41.121Z,40.10
2019-03-12T12:40:14.619Z,40.00
2019-03-12T12:41:47.079Z,39.90
2019-03-12T12:43:19.475Z,39.70
2019-03-12T12:44:51.810Z,39.70
2019-03-12T12:46:25.178Z,39.80
2019-03-12T12:47:57.640Z,39.70
2019-03-12T12:49:30.238Z,39.70
2019-03-12T12:51:03.786Z,39.50
2019-03-12T12:52:36.579Z,39.30
2019-03-12T12:54:09.901Z,39.00
2019-03-12T12:55:42.411Z,38.80
2019-03-12T12:57:14.758Z,38.60
2019-03-12T12:58:47.248Z,38.40
2019-03-12T13:00:21.708Z,38.10
2019-03-12T13:01:54.407Z,37.70
2019-03-12T13:03:26.965Z,37.70
2019-03-12T13:04:59.592Z,37.50
2019-03-12T13:06:32.045Z,37.40
2019-03-12T13:08:04.739Z,37.30
2019-03-12T13:09:37.199Z,37.10
2019-03-12T13:11:09.595Z,37.10
2019-03-12T13:12:42.135Z,37.00
2019-03-12T13:14:14.568Z,36.90
2019-03-12T13:15:46.915Z,36.80
2019-03-12T13:17:19.407Z,36.80
2019-03-12T13:18:51.782Z,36.80
2019-03-12T13:20:24.292Z,36.70
2019-03-12T13:21:56.778Z,36.60
2019-03-12T13:23:29.165Z,36.40
2019-03-12T13:25:01.845Z,36.30
2019-03-12T13:26:34.400Z,36.30
2019-03-12T13:28:06.784Z,36.20
2019-03-12T13:29:39.401Z,36.00
2019-03-12T13:31:11.875Z,36.10
2019-03-12T13:32:44.289Z,35.90
2019-03-12T13:34:16.854Z,35.70
2019-03-12T13:35:49.699Z,35.60
2019-03-12T13:37:22.307Z,35.40
2019-03-12T13:38:54.774Z,35.30
2019-03-12T13:40:27.203Z,35.10
2019-03-12T13:41:59.736Z,35.00
2019-03-12T13:43:32.153Z,34.80
2019-03-12T13:45:04.651Z,34.70
2019-03-12T13:46:37.074Z,34.50
2019-03-12T13:48:09.653Z,34.40
2019-03-12T13:49:42.283Z,34.20
2019-03-12T13:51:14.644Z,34.10
2019-03-12T13:52:47.053Z,34.10
2019-03-12T13:54:19.514Z,34.20
2019-03-12T13:55:51.854Z,34.10
2019-03-12T13:57:24.342Z,34.00
2019-03-12T13:58:56.746Z,33.80
2019-03-12T14:00:29.149Z,33.60
2019-03-12T14:02:01.694Z,33.60
2019-03-12T14:03:34.162Z,33.80
2019-03-12T14:05:06.490Z,33.60
2019-03-12T14:06:38.966Z,33.50
2019-03-12T14:08:11.311Z,33.30
2019-03-12T14:09:43.658Z,33.20
2019-03-12T14:11:16.133Z,33.00
2019-03-12T14:12:48.729Z,33.00
2019-03-12T14:14:21.144Z,33.00
2019-03-12T14:15:53.548Z,32.90
2019-03-12T14:17:26.049Z,33.00
2019-03-12T14:18:58.444Z,33.00
2019-03-12T14:20:30.849Z,32.90
2019-03-12T14:22:03.327Z,32.80
2019-03-12T14:23:35.683Z,32.70
2019-03-12T14:25:08.087Z,32.80
2019-03-12T14:26:40.779Z,32.60
2019-03-12T14:28:13.144Z,32.30
2019-03-12T14:29:45.636Z,32.30
2019-03-12T14:31:18.413Z,32.30
2019-03-12T14:32:50.812Z,32.20
2019-03-12T14:34:27.101Z,32.10
2019-03-12T14:35:58.902Z,32.00
2019-03-12T14:37:31.227Z,32.70
2019-03-12T14:39:03.710Z,31.80
2019-03-12T14:40:36.104Z,31.50
2019-03-12T14:42:10.619Z,31.20
2019-03-12T14:43:43.135Z,31.20
2019-03-12T14:45:15.711Z,31.00
2019-03-12T14:46:48.237Z,30.90
2019-03-12T14:48:20.727Z,31.00
2019-03-12T14:49:53.237Z,31.00
2019-03-12T14:51:25.656Z,30.90
2019-03-12T14:52:58.088Z,30.90
2019-03-12T14:54:30.570Z,31.00
2019-03-12T14:56:02.918Z,30.90
2019-03-12T14:57:35.491Z,31.00
2019-03-12T14:59:08.003Z,30.90
2019-03-12T15:00:40.460Z,30.70
2019-03-12T15:02:12.943Z,30.70
2019-03-12T15:03:45.419Z,30.50
2019-03-12T15:05:17.863Z,30.50
2019-03-12T15:06:50.351Z,30.40
2019-03-12T15:08:22.776Z,30.40
2019-03-12T15:09:55.203Z,30.40
2019-03-12T15:11:27.698Z,30.40
2019-03-12T15:13:00.240Z,30.40
2019-03-12T15:14:32.649Z,30.40
2019-03-12T15:16:05.259Z,30.50
2019-03-12T15:17:37.679Z,30.50
2019-03-12T15:19:10.023Z,30.30
2019-03-12T15:20:42.499Z,30.30
2019-03-12T15:22:15.021Z,30.30
2019-03-12T15:23:47.430Z,30.10
2019-03-12T15:25:19.891Z,30.20
2019-03-12T15:26:52.309Z,30.10
2019-03-12T15:28:24.724Z,30.00
2019-03-12T15:29:57.215Z,30.10
2019-03-12T15:31:31.830Z,30.00
2019-03-12T15:33:04.328Z,30.00
2019-03-12T15:34:36.806Z,30.10
2019-03-12T15:36:09.293Z,30.30
2019-03-12T15:37:41.726Z,30.30
2019-03-12T15:39:14.214Z,30.40
2019-03-12T15:40:46.615Z,30.50
2019-03-12T15:42:19.499Z,30.60
2019-03-12T15:43:52.000Z,30.70
2019-03-12T15:45:24.467Z,30.80
2019-03-12T15:46:57.011Z,31.00
2019-03-12T15:48:29.628Z,31.00
2019-03-12T15:50:02.076Z,31.20
2019-03-12T15:51:34.478Z,31.30
2019-03-12T15:53:07.384Z,31.30
2019-03-12T15:54:40.098Z,31.30
2019-03-12T15:56:12.504Z,31.40
2019-03-12T15:57:44.903Z,31.30
2019-03-12T15:59:17.339Z,31.20
2019-03-12T16:00:49.667Z,31.10
2019-03-12T16:02:21.994Z,31.20
2019-03-12T16:03:54.400Z,31.20
2019-03-12T16:05:26.823Z,31.30
2019-03-12T16:07:01.543Z,31.40
2019-03-12T16:08:33.328Z,31.40
2019-03-12T16:10:05.683Z,31.50
2019-03-12T16:11:38.033Z,31.60
2019-03-12T16:13:10.936Z,31.80
2019-03-12T16:14:43.359Z,31.90
2019-03-12T16:16:15.799Z,32.00
2019-03-12T16:17:48.202Z,32.10
2019-03-12T16:19:20.551Z,32.20
2019-03-12T16:20:53.019Z,32.30
2019-03-12T16:22:25.414Z,32.50
2019-03-12T16:23:57.829Z,32.60
2019-03-12T16:25:30.687Z,32.80
2019-03-12T16:27:03.530Z,33.00
2019-03-12T16:28:38.910Z,33.10
2019-03-12T16:30:17.039Z,33.20
2019-03-12T16:31:56.737Z,34.20
2019-03-12T16:33:34.679Z,33.50
2019-03-12T16:35:07.291Z,33.60
2019-03-12T16:36:39.931Z,33.70
2019-03-12T16:38:12.294Z,33.80
2019-03-12T16:39:44.771Z,34.00
2019-03-12T16:41:17.287Z,34.00
2019-03-12T16:42:49.710Z,34.20
2019-03-12T16:44:22.519Z,34.30
2019-03-12T16:45:57.290Z,34.30
2019-03-12T16:47:31.342Z,34.40
2019-03-12T16:49:10.703Z,35.20
2019-03-12T16:50:45.446Z,34.60
2019-03-12T16:52:27.500Z,34.70
2019-03-12T16:54:05.097Z,34.70
2019-03-12T16:55:35.959Z,34.80
2019-03-12T16:57:08.441Z,35.00
2019-03-12T16:58:40.790Z,34.90
2019-03-12T17:00:13.261Z,35.00
2019-03-12T17:01:45.655Z,35.00
2019-03-12T17:03:18.007Z,35.00
2019-03-12T17:04:50.367Z,35.20
2019-03-12T17:06:22.707Z,35.30
2019-03-12T17:07:55.067Z,35.70
2019-03-12T17:09:27.539Z,35.40
2019-03-12T17:11:02.722Z,35.50
2019-03-12T17:12:33.973Z,35.50
2019-03-12T17:14:06.399Z,35.60
2019-03-12T17:15:39.027Z,35.70
2019-03-12T17:17:11.368Z,35.90
2019-03-12T17:18:43.795Z,35.80
2019-03-12T17:20:16.592Z,36.00
2019-03-12T17:21:48.919Z,36.00
2019-03-12T17:23:21.669Z,36.10
2019-03-12T17:24:54.260Z,36.00
2019-03-12T17:26:26.643Z,36.10
2019-03-12T17:27:59.064Z,36.10
2019-03-12T17:29:31.497Z,36.30
2019-03-12T17:31:03.984Z,36.50
2019-03-12T17:32:36.435Z,36.50
2019-03-12T17:34:08.939Z,36.70
2019-03-12T17:35:41.726Z,36.80
2019-03-12T17:37:14.440Z,37.00
2019-03-12T17:38:47.351Z,37.20
2019-03-12T17:40:20.198Z,37.30
2019-03-12T17:41:52.668Z,37.50
2019-03-12T17:43:25.143Z,37.70
2019-03-12T17:44:57.569Z,37.70
2019-03-12T17:46:30.058Z,37.90
2019-03-12T17:48:02.535Z,38.00
2019-03-12T17:49:34.951Z,38.20
2019-03-12T17:51:07.393Z,38.30
2019-03-12T17:52:39.883Z,38.40
2019-03-12T17:54:12.219Z,38.50
2019-03-12T17:55:44.720Z,38.70
2019-03-12T17:57:17.128Z,38.80
2019-03-12T17:58:49.466Z,38.90
2019-03-12T18:00:21.879Z,39.00
2019-03-12T18:01:54.311Z,39.10
2019-03-12T18:03:26.726Z,39.20
2019-03-12T18:04:59.132Z,39.30
2019-03-12T18:06:34.767Z,40.20
2019-03-12T18:08:05.669Z,39.60
2019-03-12T18:09:38.143Z,39.70
2019-03-12T18:11:10.556Z,39.80
2019-03-12T18:12:42.966Z,40.00
2019-03-12T18:14:15.472Z,40.00
2019-03-12T18:15:47.944Z,40.00
2019-03-12T18:17:21.374Z,40.20
2019-03-12T18:18:53.997Z,40.20
2019-03-12T18:20:26.412Z,41.00
2019-03-12T18:21:58.780Z,40.40
2019-03-12T18:23:31.143Z,40.50
2019-03-12T18:25:03.635Z,40.50
2019-03-12T18:26:36.058Z,40.60
2019-03-12T18:28:08.593Z,40.70
2019-03-12T18:29:41.055Z,40.70
2019-03-12T18:31:13.491Z,40.80
2019-03-12T18:32:46.168Z,40.90
2019-03-12T18:34:18.667Z,40.90
2019-03-12T18:35:51.087Z,40.90
2019-03-12T18:37:23.568Z,41.10
2019-03-12T18:38:56.077Z,41.10
2019-03-12T18:40:28.487Z,41.10
2019-03-12T18:42:00.976Z,41.20
2019-03-12T18:43:33.482Z,41.30
2019-03-12T18:45:05.921Z,41.30
2019-03-12T18:46:38.345Z,41.40
2019-03-12T18:48:10.829Z,41.50
2019-03-12T18:49:43.272Z,41.50
2019-03-12T18:51:15.761Z,41.60
2019-03-12T18:52:48.251Z,41.60
2019-03-12T18:54:20.683Z,41.60
2019-03-12T18:55:53.188Z,41.80
2019-03-12T18:57:25.687Z,41.80
2019-03-12T18:58:58.119Z,41.90
2019-03-12T19:00:30.631Z,41.90
2019-03-12T19:02:03.106Z,42.00
2019-03-12T19:03:35.524Z,42.00
2019-03-12T19:05:07.953Z,41.90
2019-03-12T19:06:40.440Z,42.10
2019-03-12T19:08:12.829Z,42.00
2019-03-12T19:09:45.336Z,42.00
2019-03-12T19:11:17.779Z,42.10
2019-03-12T19:12:50.178Z,42.10
2019-03-12T19:14:22.660Z,42.10
2019-03-12T19:15:55.152Z,42.00
2019-03-12T19:17:27.555Z,42.10
2019-03-12T19:18:59.967Z,42.10
2019-03-12T19:20:33.227Z,42.10
2019-03-12T19:22:05.792Z,42.10
2019-03-12T19:23:38.276Z,42.10
2019-03-12T19:25:10.688Z,42.10
2019-03-12T19:26:43.127Z,42.10
2019-03-12T19:28:15.611Z,42.20
2019-03-12T19:29:48.019Z,42.10
2019-03-12T19:31:22.627Z,42.20
2019-03-12T19:32:54.492Z,42.20
2019-03-12T19:34:27.277Z,43.10
2019-03-12T19:35:59.783Z,42.40
2019-03-12T19:37:32.290Z,42.30
2019-03-12T19:39:04.699Z,42.30
2019-03-12T19:40:37.038Z,42.30
2019-03-12T19:42:09.542Z,42.50
2019-03-12T19:43:42.019Z,42.50
2019-03-12T19:45:14.424Z,42.50
2019-03-12T19:46:46.851Z,42.50
2019-03-12T19:48:19.336Z,42.50
2019-03-12T19:49:51.674Z,42.60
2019-03-12T19:51:24.155Z,42.60
2019-03-12T19:52:56.637Z,42.60
2019-03-12T19:54:29.191Z,42.60